Time;durP1;ratioP1;P1;durP2;ratioP2;P2;SDS_P1;SDS_P2;PMS_P1;PMS_P2;Temp;Humidity;BMP_temperature;BMP_pressure;BME280_temperature;BME280_humidity;BME280_pressure;Samples;Min_cycle;Max_cycle;Signal;HPM_P1;HPM_P2
2023/03/15 00:01:26;;;;;;;;;;;;;;;2.08;nan;100231.56;5014983;28;20004;-83
2023/03/15 00:03:53;;;;;;;;;;;;;;;2.02;nan;100236.38;5023837;28;19968;-83
2023/03/15 00:06:19;;;;;;;;;;;;;;;1.98;nan;100246.19;5008728;28;19925;-83
2023/03/15 00:08:46;;;;;;;;;;;;;;;1.94;nan;100249.09;5022072;28;19921;-83
2023/03/15 00:11:11;;;;;;;;;;;;;;;1.87;nan;100256.50;5002324;28;19927;-83
2023/03/15 00:13:36;;;;;;;;;;;;;;;1.82;nan;100251.59;5015423;28;20007;-83
2023/03/15 00:16:02;;;;;;;;;;;;;;;1.79;nan;100258.75;5041075;28;19929;-83
2023/03/15 00:18:28;;;;;;;;;;;;;;;1.73;nan;100256.56;5042063;28;19924;-83
2023/03/15 00:20:53;;;;;;;;;;;;;;;1.67;nan;100263.03;5026072;28;19945;-83
2023/03/15 00:23:18;;;;;;;;;;;;;;;1.62;nan;100265.94;5026068;28;19924;-83
2023/03/15 00:25:44;;;;;;;;;;;;;;;1.57;nan;100270.59;5012292;28;19924;-83
2023/03/15 00:28:09;;;;;;;;;;;;;;;1.53;nan;100270.94;5003676;28;19944;-83
2023/03/15 00:30:34;;;;;;;;;;;;;;;1.48;nan;100277.28;5009082;28;20382;-83
2023/03/15 00:33:00;;;;;;;;;;;;;;;1.43;nan;100284.56;5019013;28;19917;-83
2023/03/15 00:35:25;;;;;;;;;;;;;;;1.37;nan;100290.16;5008234;28;20603;-83
2023/03/15 00:37:54;;;;;;;;;;;;;;;1.34;nan;100286.91;5014922;28;19922;-83
2023/03/15 00:40:20;;;;;;;;;;;;;;;1.30;nan;100286.28;5023152;28;19918;-83
2023/03/15 00:42:48;;;;;;;;;;;;;;;1.26;nan;100296.06;5002705;28;19922;-84
2023/03/15 00:45:14;;;;;;;;;;;;;;;1.22;nan;100298.97;5003137;28;19921;-83
2023/03/15 00:47:39;;;;;;;;;;;;;;;1.19;nan;100293.91;5014036;28;20356;-82
2023/03/15 00:50:05;;;;;;;;;;;;;;;1.17;nan;100303.59;5021614;28;19918;-83
2023/03/15 00:52:34;;;;;;;;;;;;;;;1.17;nan;100301.00;5008284;28;19969;-83
2023/03/15 00:54:59;;;;;;;;;;;;;;;1.14;nan;100312.44;5003881;28;19922;-83
2023/03/15 00:57:25;;;;;;;;;;;;;;;1.07;nan;100311.16;5019563;28;19928;-84
2023/03/15 00:59:51;;;;;;;;;;;;;;;1.02;nan;100327.06;5002825;28;19929;-83
2023/03/15 01:02:20;;;;;;;;;;;;;;;0.97;nan;100330.91;5021111;28;19925;-84
2023/03/15 01:04:46;;;;;;;;;;;;;;;0.91;nan;100331.28;5020173;28;19945;-83
2023/03/15 01:07:11;;;;;;;;;;;;;;;0.88;nan;100328.84;5011302;28;19932;-83
2023/03/15 01:09:36;;;;;;;;;;;;;;;0.89;nan;100325.34;5022669;28;19922;-83
2023/03/15 01:12:01;;;;;;;;;;;;;;;0.91;nan;100328.69;5017485;28;19961;-83
2023/03/15 01:14:26;;;;;;;;;;;;;;;0.88;nan;100334.88;5007351;28;19926;-84
2023/03/15 01:16:51;;;;;;;;;;;;;;;0.81;nan;100338.81;5018920;28;19918;-83
2023/03/15 01:19:17;;;;;;;;;;;;;;;0.77;nan;100335.56;5007465;28;20012;-83
2023/03/15 01:21:43;;;;;;;;;;;;;;;0.76;nan;100335.66;5002647;28;20361;-83
2023/03/15 01:24:11;;;;;;;;;;;;;;;0.78;nan;100337.22;5002602;28;19918;-83
2023/03/15 01:26:36;;;;;;;;;;;;;;;0.75;nan;100342.63;5019568;28;19922;-83
2023/03/15 01:29:01;;;;;;;;;;;;;;;0.74;nan;100342.72;5024453;28;19921;-83
2023/03/15 01:31:27;;;;;;;;;;;;;;;0.74;nan;100340.09;5023747;28;19951;-84
2023/03/15 01:33:53;;;;;;;;;;;;;;;0.68;nan;100332.69;5024835;28;19983;-84
2023/03/15 01:36:18;;;;;;;;;;;;;;;0.65;nan;100336.31;5009870;28;19918;-84
2023/03/15 01:38:44;;;;;;;;;;;;;;;0.63;nan;100335.56;5022894;28;19917;-83
2023/03/15 01:41:13;;;;;;;;;;;;;;;0.60;nan;100343.56;5024111;28;19922;-82
2023/03/15 01:43:38;;;;;;;;;;;;;;;0.53;nan;100350.91;5021299;28;19917;-82
2023/03/15 01:46:16;;;;;;;;;;;;;;;0.47;nan;100356.47;5020533;28;20179;-82
2023/03/15 01:48:45;;;;;;;;;;;;;;;0.49;nan;100359.81;5010661;28;19976;-83
2023/03/15 01:51:15;;;;;;;;;;;;;;;0.48;nan;100370.28;5007579;28;19922;-83
2023/03/15 01:53:42;;;;;;;;;;;;;;;0.46;nan;100369.56;5009357;28;19925;-82
2023/03/15 01:56:08;;;;;;;;;;;;;;;0.43;nan;100368.00;5021310;28;20374;-82
2023/03/15 01:58:34;;;;;;;;;;;;;;;0.39;nan;100371.69;5020098;28;19925;-83
2023/03/15 02:01:00;;;;;;;;;;;;;;;0.34;nan;100363.34;5017565;28;19928;-83
2023/03/15 02:03:38;;;;;;;;;;;;;;;0.31;nan;100368.69;5003743;28;19922;-83
2023/03/15 02:06:05;;;;;;;;;;;;;;;0.29;nan;100375.78;5017080;28;19921;-83
2023/03/15 02:08:32;;;;;;;;;;;;;;;0.27;nan;100375.03;5013351;28;20009;-83
2023/03/15 02:10:58;;;;;;;;;;;;;;;0.19;nan;100378.91;5013087;28;19922;-82
2023/03/15 02:13:24;;;;;;;;;;;;;;;0.22;nan;100374.47;5021569;28;19925;-83
2023/03/15 02:15:52;;;;;;;;;;;;;;;0.20;nan;100377.97;5004345;28;19994;-82
2023/03/15 02:18:18;;;;;;;;;;;;;;;0.26;nan;100378.53;5001831;28;19922;-81
2023/03/15 02:20:52;;;;;;;;;;;;;;;0.31;nan;100377.34;5007993;28;20007;-83
2023/03/15 02:23:19;;;;;;;;;;;;;;;0.32;nan;100373.81;5014588;28;19918;-82
2023/03/15 02:26:03;;;;;;;;;;;;;;;0.31;nan;100371.28;5020304;28;19984;-83
2023/03/15 02:28:29;;;;;;;;;;;;;;;0.29;nan;100370.56;5038578;28;19980;-83
2023/03/15 02:30:54;;;;;;;;;;;;;;;0.25;nan;100375.09;5027463;28;20559;-83
2023/03/15 02:33:25;;;;;;;;;;;;;;;0.22;nan;100377.06;5020757;28;19917;-82
2023/03/15 02:35:50;;;;;;;;;;;;;;;0.13;nan;100387.03;5021583;28;20309;-83
2023/03/15 02:38:16;;;;;;;;;;;;;;;0.05;nan;100388.41;5006113;28;19945;-83
2023/03/15 02:40:43;;;;;;;;;;;;;;;-0.05;nan;100386.34;5013439;28;19918;-84
2023/03/15 02:43:12;;;;;;;;;;;;;;;-0.10;nan;100388.34;5017827;28;19925;-83
2023/03/15 02:45:38;;;;;;;;;;;;;;;-0.10;nan;100393.53;5013769;28;19926;-84
2023/03/15 02:48:04;;;;;;;;;;;;;;;-0.10;nan;100400.50;5019986;28;19918;-83
2023/03/15 02:50:29;;;;;;;;;;;;;;;-0.18;nan;100408.75;5011796;28;19918;-82
2023/03/15 02:52:54;;;;;;;;;;;;;;;-0.24;nan;100409.09;5005812;28;19945;-83
2023/03/15 02:55:20;;;;;;;;;;;;;;;-0.24;nan;100411.69;4999953;28;20390;-83
2023/03/15 02:57:45;;;;;;;;;;;;;;;-0.18;nan;100405.31;5011448;28;20441;-83
2023/03/15 03:00:13;;;;;;;;;;;;;;;-0.15;nan;100407.75;5012968;28;19980;-83
2023/03/15 03:02:38;;;;;;;;;;;;;;;-0.14;nan;100418.06;5019998;28;20402;-83
2023/03/15 03:05:04;;;;;;;;;;;;;;;-0.13;nan;100426.69;5013303;28;19922;-83
2023/03/15 03:07:29;;;;;;;;;;;;;;;-0.17;nan;100431.19;5003451;28;19968;-83
2023/03/15 03:09:55;;;;;;;;;;;;;;;-0.20;nan;100431.38;5009087;28;19961;-83
2023/03/15 03:12:20;;;;;;;;;;;;;;;-0.25;nan;100441.19;5011595;28;19918;-83
2023/03/15 03:14:46;;;;;;;;;;;;;;;-0.29;nan;100437.09;5020516;28;19931;-83
2023/03/15 03:17:11;;;;;;;;;;;;;;;-0.31;nan;100442.38;5021570;28;19929;-82
2023/03/15 03:19:36;;;;;;;;;;;;;;;-0.26;nan;100449.94;5011359;28;19922;-82
2023/03/15 03:22:03;;;;;;;;;;;;;;;-0.22;nan;100452.25;5000897;28;19922;-82
2023/03/15 03:24:28;;;;;;;;;;;;;;;-0.18;nan;100450.31;4999137;28;19954;-83
2023/03/15 03:26:56;;;;;;;;;;;;;;;-0.15;nan;100454.50;5008122;28;19929;-82
2023/03/15 03:29:21;;;;;;;;;;;;;;;-0.10;nan;100462.88;5018073;28;19917;-83
2023/03/15 03:31:47;;;;;;;;;;;;;;;-0.08;nan;100466.25;5009859;28;20373;-83
2023/03/15 03:34:14;;;;;;;;;;;;;;;-0.10;nan;100466.31;5008545;28;20405;-83
2023/03/15 03:36:39;;;;;;;;;;;;;;;-0.10;nan;100468.09;5003497;28;19918;-82
2023/03/15 03:39:04;;;;;;;;;;;;;;;-0.10;nan;100470.69;5017147;28;19922;-83
2023/03/15 03:41:30;;;;;;;;;;;;;;;-0.08;nan;100472.28;5014787;28;19921;-83
2023/03/15 03:43:55;;;;;;;;;;;;;;;-0.07;nan;100473.09;5014932;28;19968;-83
2023/03/15 03:46:20;;;;;;;;;;;;;;;-0.05;nan;100476.47;5017422;28;19925;-82
2023/03/15 03:48:45;;;;;;;;;;;;;;;-0.06;nan;100480.00;5017261;28;20008;-83
2023/03/15 03:51:10;;;;;;;;;;;;;;;-0.06;nan;100483.44;5013407;28;19922;-82
2023/03/15 03:53:36;;;;;;;;;;;;;;;-0.03;nan;100485.03;5003948;28;20385;-82
2023/03/15 03:56:03;;;;;;;;;;;;;;;-0.04;nan;100483.34;5018765;28;19932;-82
2023/03/15 03:58:29;;;;;;;;;;;;;;;-0.02;nan;100486.72;5001520;28;19957;-82
2023/03/15 04:00:54;;;;;;;;;;;;;;;-0.03;nan;100490.22;5006355;28;19940;-82
2023/03/15 04:03:25;;;;;;;;;;;;;;;-0.03;nan;100492.81;5013340;28;19921;-83
2023/03/15 04:05:51;;;;;;;;;;;;;;;-0.04;nan;100493.75;5008346;28;19917;-83
2023/03/15 04:08:16;;;;;;;;;;;;;;;-0.04;nan;100491.16;5017812;28;19967;-83
2023/03/15 04:10:42;;;;;;;;;;;;;;;-0.05;nan;100494.66;5003019;28;19942;-83
2023/03/15 04:13:07;;;;;;;;;;;;;;;-0.07;nan;100499.97;4997742;28;19918;-84
2023/03/15 04:15:32;;;;;;;;;;;;;;;-0.09;nan;100496.59;4998181;28;20298;-83
2023/03/15 04:17:57;;;;;;;;;;;;;;;-0.11;nan;100503.66;5015170;28;19921;-83
2023/03/15 04:20:24;;;;;;;;;;;;;;;-0.10;nan;100494.91;5016473;28;19921;-83
2023/03/15 04:22:49;;;;;;;;;;;;;;;-0.12;nan;100491.59;5018705;28;19925;-82
2023/03/15 04:25:16;;;;;;;;;;;;;;;-0.14;nan;100502.97;5018164;28;19923;-83
2023/03/15 04:27:41;;;;;;;;;;;;;;;-0.19;nan;100500.63;5000349;28;19929;-83
2023/03/15 04:30:07;;;;;;;;;;;;;;;-0.23;nan;100493.94;5008266;28;19921;-83
2023/03/15 04:32:32;;;;;;;;;;;;;;;-0.22;nan;100495.59;5019566;28;19921;-82
2023/03/15 04:34:57;;;;;;;;;;;;;;;-0.17;nan;100490.97;5021038;28;19940;-82
2023/03/15 04:37:22;;;;;;;;;;;;;;;-0.19;nan;100502.38;5034179;28;20317;-83
2023/03/15 04:39:47;;;;;;;;;;;;;;;-0.18;nan;100501.47;5002425;28;19922;-83
2023/03/15 04:42:12;;;;;;;;;;;;;;;-0.17;nan;100501.38;5006845;28;20429;-84
2023/03/15 04:44:38;;;;;;;;;;;;;;;-0.16;nan;100510.03;5001815;28;19922;-83
2023/03/15 04:47:03;;;;;;;;;;;;;;;-0.13;nan;100515.88;5009840;28;19922;-83
2023/03/15 04:49:28;;;;;;;;;;;;;;;-0.13;nan;100520.25;5019815;28;19917;-83
2023/03/15 04:51:53;;;;;;;;;;;;;;;-0.15;nan;100517.72;5016846;28;19922;-84
2023/03/15 04:54:19;;;;;;;;;;;;;;;-0.11;nan;100526.19;4999091;28;19994;-84
2023/03/15 04:56:44;;;;;;;;;;;;;;;-0.09;nan;100522.59;5014131;28;19921;-84
2023/03/15 04:59:10;;;;;;;;;;;;;;;-0.06;nan;100516.38;5002028;28;19921;-83
2023/03/15 05:01:36;;;;;;;;;;;;;;;-0.05;nan;100512.84;5001637;28;19922;-84
2023/03/15 05:04:01;;;;;;;;;;;;;;;-0.01;nan;100515.19;5017200;28;19922;-83
2023/03/15 05:06:26;;;;;;;;;;;;;;;0.04;nan;100511.53;5004067;28;20009;-84
2023/03/15 05:08:52;;;;;;;;;;;;;;;0.13;nan;100521.41;5016618;28;19945;-83
2023/03/15 05:11:17;;;;;;;;;;;;;;;0.19;nan;100516.72;5019809;28;19922;-84
2023/03/15 05:13:42;;;;;;;;;;;;;;;0.25;nan;100523.31;5020327;28;19922;-82
2023/03/15 05:16:07;;;;;;;;;;;;;;;0.33;nan;100522.88;5020809;28;19985;-83
2023/03/15 05:18:33;;;;;;;;;;;;;;;0.39;nan;100515.59;5021805;28;19917;-83
2023/03/15 05:20:58;;;;;;;;;;;;;;;0.45;nan;100522.19;5020590;28;20103;-83
2023/03/15 05:23:23;;;;;;;;;;;;;;;0.50;nan;100525.41;5004803;28;19937;-83
2023/03/15 05:25:52;;;;;;;;;;;;;;;0.57;nan;100525.84;5025552;28;19984;-82
2023/03/15 05:28:18;;;;;;;;;;;;;;;0.61;nan;100529.97;5024776;28;19976;-83
2023/03/15 05:30:43;;;;;;;;;;;;;;;0.65;nan;100522.84;5011073;28;19941;-83
2023/03/15 05:33:10;;;;;;;;;;;;;;;0.68;nan;100525.25;5007244;28;19945;-83
2023/03/15 05:35:35;;;;;;;;;;;;;;;0.74;nan;100535.28;5017967;28;19996;-83
2023/03/15 05:38:00;;;;;;;;;;;;;;;0.77;nan;100543.78;5012549;28;19925;-83
2023/03/15 05:40:28;;;;;;;;;;;;;;;0.79;nan;100547.13;5002449;28;19956;-82
2023/03/15 05:42:53;;;;;;;;;;;;;;;0.82;nan;100540.91;5013275;28;19936;-83
2023/03/15 05:45:18;;;;;;;;;;;;;;;0.84;nan;100554.69;5021565;28;19918;-82
2023/03/15 05:47:44;;;;;;;;;;;;;;;0.89;nan;100557.03;5007728;28;20463;-83
2023/03/15 05:50:09;;;;;;;;;;;;;;;0.92;nan;100560.28;5015671;28;19918;-81
2023/03/15 05:52:34;;;;;;;;;;;;;;;1.02;nan;100557.97;5004549;28;19922;-84
2023/03/15 05:54:59;;;;;;;;;;;;;;;1.04;nan;100548.31;5019263;28;19940;-84
2023/03/15 05:57:25;;;;;;;;;;;;;;;1.08;nan;100554.19;5024315;28;19921;-84
2023/03/15 05:59:50;;;;;;;;;;;;;;;1.11;nan;100554.00;5039941;28;19922;-83
2023/03/15 06:02:15;;;;;;;;;;;;;;;1.13;nan;100565.16;5025230;28;19937;-84
2023/03/15 06:04:40;;;;;;;;;;;;;;;1.17;nan;100559.69;5028633;28;19917;-84
2023/03/15 06:07:05;;;;;;;;;;;;;;;1.17;nan;100549.25;5008106;28;20004;-83
2023/03/15 06:09:31;;;;;;;;;;;;;;;1.20;nan;100548.25;5017828;28;19928;-84
2023/03/15 06:11:57;;;;;;;;;;;;;;;1.17;nan;100557.06;5006256;28;19922;-83
2023/03/15 06:14:23;;;;;;;;;;;;;;;1.21;nan;100565.53;5007672;28;19926;-84
2023/03/15 06:16:48;;;;;;;;;;;;;;;1.23;nan;100576.69;5005492;28;19940;-84
2023/03/15 06:19:13;;;;;;;;;;;;;;;1.23;nan;100568.88;5006071;28;19953;-83
2023/03/15 06:21:38;;;;;;;;;;;;;;;1.23;nan;100577.53;5005363;28;19918;-83
2023/03/15 06:24:05;;;;;;;;;;;;;;;1.27;nan;100576.44;5006244;28;19952;-84
2023/03/15 06:26:30;;;;;;;;;;;;;;;1.29;nan;100589.38;5003891;28;20388;-84
2023/03/15 06:28:55;;;;;;;;;;;;;;;1.32;nan;100578.78;5015164;28;19929;-83
2023/03/15 06:31:20;;;;;;;;;;;;;;;1.34;nan;100583.91;5021490;28;19921;-84
2023/03/15 06:33:46;;;;;;;;;;;;;;;1.36;nan;100592.44;5027137;28;19921;-84
2023/03/15 06:36:11;;;;;;;;;;;;;;;1.39;nan;100585.28;5005355;28;19918;-84
2023/03/15 06:38:36;;;;;;;;;;;;;;;1.37;nan;100583.72;5006711;28;19949;-83
2023/03/15 06:41:03;;;;;;;;;;;;;;;1.38;nan;100586.22;5012879;28;19961;-84
2023/03/15 06:43:29;;;;;;;;;;;;;;;1.38;nan;100599.25;5042261;28;19917;-83
2023/03/15 06:45:55;;;;;;;;;;;;;;;1.40;nan;100599.97;5026941;28;19914;-83
2023/03/15 06:48:21;;;;;;;;;;;;;;;1.40;nan;100596.53;5026191;28;19924;-83
2023/03/15 06:50:46;;;;;;;;;;;;;;;1.42;nan;100608.53;5007969;28;19926;-83
2023/03/15 06:53:12;;;;;;;;;;;;;;;1.44;nan;100613.69;5009390;28;19953;-82
2023/03/15 06:55:37;;;;;;;;;;;;;;;1.49;nan;100611.63;5013273;28;20017;-82
2023/03/15 06:58:02;;;;;;;;;;;;;;;1.50;nan;100608.09;5016664;28;20177;-83
2023/03/15 07:00:27;;;;;;;;;;;;;;;1.49;nan;100612.47;5011868;28;19928;-83
2023/03/15 07:02:52;;;;;;;;;;;;;;;1.52;nan;100613.22;5040809;28;19922;-83
2023/03/15 07:05:17;;;;;;;;;;;;;;;1.55;nan;100613.03;5026221;28;19917;-83
2023/03/15 07:07:43;;;;;;;;;;;;;;;1.59;nan;100610.13;5009337;28;20380;-82
2023/03/15 07:10:09;;;;;;;;;;;;;;;1.58;nan;100605.88;5015367;28;19949;-83
2023/03/15 07:12:34;;;;;;;;;;;;;;;1.60;nan;100604.00;5025370;28;19906;-85
2023/03/15 07:14:59;;;;;;;;;;;;;;;1.60;nan;100618.81;5033963;23;19926;-86
2023/03/15 07:17:24;;;;;;;;;;;;;;;1.64;nan;100633.31;5016350;28;19933;-86
2023/03/15 07:19:50;;;;;;;;;;;;;;;1.71;nan;100645.06;5009388;28;20307;-86
2023/03/15 07:22:16;;;;;;;;;;;;;;;1.75;nan;100651.78;5007347;28;19963;-87
2023/03/15 07:24:41;;;;;;;;;;;;;;;1.84;nan;100655.59;4991704;28;19918;-87
2023/03/15 07:27:06;;;;;;;;;;;;;;;1.85;nan;100655.50;4996679;28;19928;-86
2023/03/15 07:29:31;;;;;;;;;;;;;;;1.88;nan;100659.69;4996092;28;20526;-86
2023/03/15 07:31:56;;;;;;;;;;;;;;;1.89;nan;100666.59;5006206;28;20351;-86
2023/03/15 07:34:22;;;;;;;;;;;;;;;1.92;nan;100674.22;4998227;28;20379;-88
2023/03/15 07:36:47;;;;;;;;;;;;;;;1.93;nan;100670.66;4991020;28;19984;-88
2023/03/15 07:39:12;;;;;;;;;;;;;;;1.93;nan;100665.47;4994170;28;20296;-88
2023/03/15 07:41:37;;;;;;;;;;;;;;;1.95;nan;100678.41;4999310;28;19945;-87
2023/03/15 07:44:03;;;;;;;;;;;;;;;1.96;nan;100683.53;4996007;28;19922;-88
2023/03/15 07:46:28;;;;;;;;;;;;;;;1.97;nan;100682.59;4982607;28;19930;-88
2023/03/15 07:48:53;;;;;;;;;;;;;;;1.96;nan;100667.06;4996628;28;20406;-88
2023/03/15 07:51:18;;;;;;;;;;;;;;;1.99;nan;100670.31;4988235;28;19918;-87
2023/03/15 07:53:44;;;;;;;;;;;;;;;2.00;nan;100666.78;4993805;28;20013;-88
2023/03/15 07:56:09;;;;;;;;;;;;;;;2.05;nan;100661.25;5008604;28;19922;-88
2023/03/15 07:58:34;;;;;;;;;;;;;;;2.08;nan;100666.31;5002033;28;19918;-88
2023/03/15 08:01:00;;;;;;;;;;;;;;;2.08;nan;100666.31;5001264;28;19922;-87
2023/03/15 08:03:25;;;;;;;;;;;;;;;2.12;nan;100666.03;5008826;28;20008;-88
2023/03/15 08:05:51;;;;;;;;;;;;;;;2.09;nan;100674.03;4998380;28;20375;-87
2023/03/15 08:08:16;;;;;;;;;;;;;;;2.11;nan;100669.56;4995828;28;19921;-87
2023/03/15 08:10:42;;;;;;;;;;;;;;;2.17;nan;100676.19;5003132;28;19934;-88
2023/03/15 08:13:08;;;;;;;;;;;;;;;2.21;nan;100667.22;4991755;28;20367;-87
2023/03/15 08:15:33;;;;;;;;;;;;;;;2.25;nan;100663.50;4998388;28;19925;-87
2023/03/15 08:17:58;;;;;;;;;;;;;;;2.29;nan;100672.81;5011468;28;19918;-87
2023/03/15 08:20:24;;;;;;;;;;;;;;;2.29;nan;100667.59;5010697;28;19929;-87
2023/03/15 08:22:50;;;;;;;;;;;;;;;2.28;nan;100672.91;5001696;28;19914;-88
2023/03/15 08:25:16;;;;;;;;;;;;;;;2.36;nan;100688.09;4999105;28;20094;-87
2023/03/15 08:27:42;;;;;;;;;;;;;;;2.34;nan;100702.06;4999300;28;20017;-86
2023/03/15 08:30:11;;;;;;;;;;;;;;;2.39;nan;100695.75;5011074;28;20016;-87
2023/03/15 08:32:37;;;;;;;;;;;;;;;2.30;nan;100695.34;5010365;28;20219;-87
2023/03/15 08:35:02;;;;;;;;;;;;;;;2.28;nan;100701.59;4991994;28;20001;-87
2023/03/15 08:37:28;;;;;;;;;;;;;;;2.19;nan;100695.16;4991751;28;19957;-86
2023/03/15 08:39:59;;;;;;;;;;;;;;;2.22;nan;100695.00;5000876;28;19953;-87
2023/03/15 08:42:25;;;;;;;;;;;;;;;2.24;nan;100697.50;5002023;28;20405;-87
2023/03/15 08:44:50;;;;;;;;;;;;;;;2.31;nan;100699.66;5010453;28;19917;-87
2023/03/15 08:47:15;;;;;;;;;;;;;;;2.29;nan;100695.47;5010493;28;20425;-87
2023/03/15 08:49:40;;;;;;;;;;;;;;;2.33;nan;100689.94;5011509;28;20437;-87
2023/03/15 08:52:06;;;;;;;;;;;;;;;2.27;nan;100702.56;4991725;28;20395;-88
2023/03/15 08:54:31;;;;;;;;;;;;;;;2.28;nan;100702.44;5005399;28;19921;-87
2023/03/15 08:56:56;;;;;;;;;;;;;;;2.26;nan;100713.91;4994163;28;19945;-87
2023/03/15 08:59:21;;;;;;;;;;;;;;;2.31;nan;100720.53;5006783;28;20246;-87
2023/03/15 09:01:47;;;;;;;;;;;;;;;2.28;nan;100714.66;4994276;28;19918;-87
2023/03/15 09:04:14;;;;;;;;;;;;;;;2.33;nan;100720.44;5005823;28;19917;-87
2023/03/15 09:06:41;;;;;;;;;;;;;;;2.44;nan;100730.22;5003985;28;19918;-87
2023/03/15 09:09:06;;;;;;;;;;;;;;;2.42;nan;100732.06;4995256;28;19928;-87
2023/03/15 09:11:31;;;;;;;;;;;;;;;2.39;nan;100721.84;5000714;28;19917;-87
2023/03/15 09:13:56;;;;;;;;;;;;;;;2.40;nan;100731.34;4995993;28;19940;-87
2023/03/15 09:16:21;;;;;;;;;;;;;;;2.30;nan;100724.06;5008937;28;19987;-87
2023/03/15 09:18:46;;;;;;;;;;;;;;;2.19;nan;100729.09;5014594;28;19918;-87
2023/03/15 09:21:12;;;;;;;;;;;;;;;2.15;nan;100738.06;5001026;28;19924;-86
2023/03/15 09:23:37;;;;;;;;;;;;;;;2.01;nan;100741.47;5008601;28;20424;-86
2023/03/15 09:26:02;;;;;;;;;;;;;;;1.92;nan;100748.06;5023716;28;19918;-85
2023/03/15 09:28:28;;;;;;;;;;;;;;;1.87;nan;100750.13;5009679;28;19945;-86
2023/03/15 09:30:53;;;;;;;;;;;;;;;1.86;nan;100751.06;5011888;28;20083;-86
2023/03/15 09:33:21;;;;;;;;;;;;;;;1.78;nan;100758.47;5021161;28;20005;-85
2023/03/15 09:35:46;;;;;;;;;;;;;;;1.67;nan;100756.50;5005467;28;19926;-85
2023/03/15 09:38:11;;;;;;;;;;;;;;;1.57;nan;100759.72;4995315;28;19924;-87
2023/03/15 09:40:41;;;;;;;;;;;;;;;1.55;nan;100765.03;4998588;28;19917;-85
2023/03/15 09:43:06;;;;;;;;;;;;;;;1.54;nan;100768.56;5015937;28;20037;-86
2023/03/15 09:45:49;;;;;;;;;;;;;;;1.49;nan;100768.81;4998118;28;19953;-84
2023/03/15 09:48:18;;;;;;;;;;;;;;;1.37;nan;100766.91;5008923;28;19989;-84
2023/03/15 09:50:50;;;;;;;;;;;;;;;1.22;nan;100767.78;4997083;28;19984;-84
2023/03/15 09:53:19;;;;;;;;;;;;;;;1.11;nan;100772.75;4980524;28;20292;-84
2023/03/15 09:55:47;;;;;;;;;;;;;;;0.98;nan;100773.44;5000821;28;19930;-84
2023/03/15 09:58:16;;;;;;;;;;;;;;;0.90;nan;100777.38;4993814;28;19921;-84
2023/03/15 10:00:44;;;;;;;;;;;;;;;0.79;nan;100775.38;5004773;28;19918;-84
2023/03/15 10:03:28;;;;;;;;;;;;;;;0.76;nan;100778.09;4991972;28;19922;-84
2023/03/15 10:05:55;;;;;;;;;;;;;;;0.73;nan;100781.72;4999483;28;19929;-85
2023/03/15 10:08:20;;;;;;;;;;;;;;;0.73;nan;100779.13;5010730;28;19921;-85
2023/03/15 10:10:49;;;;;;;;;;;;;;;0.73;nan;100780.88;5011482;28;19928;-85
2023/03/15 10:13:20;;;;;;;;;;;;;;;0.76;nan;100780.72;5007789;28;19925;-84
2023/03/15 10:15:49;;;;;;;;;;;;;;;0.83;nan;100772.50;5006575;28;20095;-85
2023/03/15 10:18:25;;;;;;;;;;;;;;;0.87;nan;100773.16;4985571;28;19928;-84
2023/03/15 10:20:54;;;;;;;;;;;;;;;0.91;nan;100779.91;4994297;28;19921;-84
2023/03/15 10:23:27;;;;;;;;;;;;;;;1.01;nan;100785.44;4994558;28;19949;-84
2023/03/15 10:25:53;;;;;;;;;;;;;;;1.12;nan;100784.84;4994643;28;19944;-85
2023/03/15 10:28:28;;;;;;;;;;;;;;;1.26;nan;100780.56;4995546;28;19921;-85
2023/03/15 10:30:56;;;;;;;;;;;;;;;1.46;nan;100787.25;4999209;28;19918;-85
2023/03/15 10:33:33;;;;;;;;;;;;;;;1.59;nan;100791.75;4994428;28;19921;-86
2023/03/15 10:35:58;;;;;;;;;;;;;;;1.68;nan;100797.28;5003370;28;19922;-86
2023/03/15 10:38:24;;;;;;;;;;;;;;;1.71;nan;100783.22;5009575;28;19991;-85
2023/03/15 10:40:52;;;;;;;;;;;;;;;1.79;nan;100790.59;5010389;28;19946;-85
2023/03/15 10:43:17;;;;;;;;;;;;;;;1.81;nan;100786.13;4999091;28;19922;-85
2023/03/15 10:45:45;;;;;;;;;;;;;;;1.86;nan;100787.56;5003702;28;19969;-86
2023/03/15 10:48:11;;;;;;;;;;;;;;;1.94;nan;100787.09;4996377;28;20380;-86
2023/03/15 10:50:39;;;;;;;;;;;;;;;2.04;nan;100776.97;5005769;28;19922;-86
2023/03/15 10:53:19;;;;;;;;;;;;;;;2.09;nan;100773.16;5010692;28;19930;-87
2023/03/15 10:55:45;;;;;;;;;;;;;;;2.21;nan;100782.00;4998508;28;19929;-88
2023/03/15 10:58:26;;;;;;;;;;;;;;;2.31;nan;100782.31;4986776;28;19922;-86
2023/03/15 11:00:57;;;;;;;;;;;;;;;2.34;nan;100771.69;4991065;28;20406;-87
2023/03/15 11:03:23;;;;;;;;;;;;;;;2.43;nan;100773.75;4990483;28;20016;-87
2023/03/15 11:05:50;;;;;;;;;;;;;;;2.48;nan;100774.31;5008199;28;19928;-87
2023/03/15 11:08:17;;;;;;;;;;;;;;;2.54;nan;100768.69;5010422;28;19917;-86
2023/03/15 11:10:43;;;;;;;;;;;;;;;2.56;nan;100776.44;4998113;28;20285;-87
2023/03/15 11:13:22;;;;;;;;;;;;;;;2.64;nan;100774.19;4988143;28;19965;-87
2023/03/15 11:16:08;;;;;;;;;;;;;;;2.76;nan;100770.84;5001452;28;19948;-87
2023/03/15 11:18:42;;;;;;;;;;;;;;;2.98;nan;100774.72;4989166;28;19921;-87
2023/03/15 11:21:11;;;;;;;;;;;;;;;3.17;nan;100777.84;4999960;28;19922;-88
2023/03/15 11:23:38;;;;;;;;;;;;;;;3.25;nan;100776.50;5012896;28;19922;-87
2023/03/15 11:26:05;;;;;;;;;;;;;;;3.40;nan;100778.13;5013337;28;20016;-87
2023/03/15 11:28:30;;;;;;;;;;;;;;;3.50;nan;100778.34;4996540;28;19930;-87
2023/03/15 11:30:58;;;;;;;;;;;;;;;3.64;nan;100780.06;5003202;28;19999;-86
2023/03/15 11:33:42;;;;;;;;;;;;;;;3.79;nan;100779.03;5009187;28;19918;-88
2023/03/15 11:36:12;;;;;;;;;;;;;;;3.93;nan;100783.34;4992384;28;19921;-87
2023/03/15 11:38:44;;;;;;;;;;;;;;;4.00;nan;100777.63;4989607;28;19925;-87
2023/03/15 11:41:27;;;;;;;;;;;;;;;4.15;nan;100778.38;4990843;28;19928;-87
2023/03/15 11:44:16;;;;;;;;;;;;;;;4.53;nan;100777.53;5002464;28;20212;-87
2023/03/15 11:46:44;;;;;;;;;;;;;;;4.98;nan;100785.72;4981520;28;19922;-87
2023/03/15 11:49:18;;;;;;;;;;;;;;;5.26;nan;100776.69;4974283;28;19968;-86
2023/03/15 11:51:44;;;;;;;;;;;;;;;5.48;nan;100775.97;4992549;28;19917;-87
2023/03/15 11:54:17;;;;;;;;;;;;;;;5.59;nan;100766.47;5005574;28;19917;-87
2023/03/15 11:56:42;;;;;;;;;;;;;;;5.71;nan;100774.25;5006207;28;20149;-87
2023/03/15 11:59:12;;;;;;;;;;;;;;;5.79;nan;100783.34;5005718;28;19964;-87
2023/03/15 12:01:50;;;;;;;;;;;;;;;6.02;nan;100781.66;4993861;28;19940;-86
2023/03/15 12:04:25;;;;;;;;;;;;;;;6.23;nan;100779.19;4994850;28;19925;-87
2023/03/15 12:06:54;;;;;;;;;;;;;;;6.30;nan;100781.22;5002308;28;19918;-87
2023/03/15 12:09:31;;;;;;;;;;;;;;;6.19;nan;100775.13;5003171;28;19968;-87
2023/03/15 12:12:16;;;;;;;;;;;;;;;6.13;nan;100781.69;5009986;28;20020;-87
2023/03/15 12:14:43;;;;;;;;;;;;;;;6.15;nan;100780.59;5006132;28;20226;-87
2023/03/15 12:17:25;;;;;;;;;;;;;;;6.16;nan;100773.56;5006545;28;20008;-86
2023/03/15 12:19:58;;;;;;;;;;;;;;;5.99;nan;100784.50;5007699;28;19967;-86
2023/03/15 12:22:26;;;;;;;;;;;;;;;5.87;nan;100784.44;4999202;28;19925;-86
2023/03/15 12:24:51;;;;;;;;;;;;;;;5.74;nan;100783.69;5004163;28;20008;-86
2023/03/15 12:27:19;;;;;;;;;;;;;;;5.64;nan;100772.19;5012415;28;20003;-87
2023/03/15 12:29:44;;;;;;;;;;;;;;;5.48;nan;100772.47;5006664;28;20319;-86
2023/03/15 12:32:19;;;;;;;;;;;;;;;5.46;nan;100780.47;4998741;28;19945;-87
2023/03/15 12:34:44;;;;;;;;;;;;;;;5.45;nan;100781.41;4992101;28;19961;-87
2023/03/15 12:37:15;;;;;;;;;;;;;;;5.55;nan;100776.31;5000036;28;20043;-87
2023/03/15 12:39:42;;;;;;;;;;;;;;;5.58;nan;100780.50;5001230;28;19981;-87
2023/03/15 12:42:11;;;;;;;;;;;;;;;5.65;nan;100776.47;5002455;28;19925;-87
2023/03/15 12:44:43;;;;;;;;;;;;;;;5.81;nan;100786.69;5011523;28;19979;-87
2023/03/15 12:47:09;;;;;;;;;;;;;;;6.02;nan;100790.34;4995345;28;19921;-87
2023/03/15 12:49:34;;;;;;;;;;;;;;;6.17;nan;100783.09;4996782;28;20092;-87
2023/03/15 12:52:00;;;;;;;;;;;;;;;6.42;nan;100784.69;5002704;28;20111;-87
2023/03/15 12:54:43;;;;;;;;;;;;;;;6.83;nan;100777.16;5000111;28;20296;-87
2023/03/15 12:57:10;;;;;;;;;;;;;;;7.27;nan;100767.47;5004684;28;19921;-88
2023/03/15 12:59:57;;;;;;;;;;;;;;;7.29;nan;100760.31;5009938;28;19925;-87
2023/03/15 13:02:45;;;;;;;;;;;;;;;7.20;nan;100769.78;4982567;28;19924;-88
2023/03/15 13:05:15;;;;;;;;;;;;;;;7.11;nan;100767.91;4991312;28;19921;-87